Observation data for Brownfield on 06/25/2019      Previous  Date  Next       Current Mesonet Observations  Soil Data  Daily Summary Page  Observations in Plain Language
KBWS 250500Z 14017KT 23/19 A2999 RMK A01 T02310187  RH  078%=      5-min Rain = 0
KBWS 250505Z 14017G22KT 23/19 A2999 RMK A01 T02290187  RH  079%=      5-min Rain = 0
KBWS 250510Z 14015KT 23/19 A2999 RMK A01 T02270186  RH  079%=      5-min Rain = 0
KBWS 250515Z 14014G20KT 23/19 A2999 RMK A01 T02260185  RH  080%=      5-min Rain = 0
KBWS 250520Z 15013KT 22/18 A2999 RMK A01 T02240183  RH  080%=      5-min Rain = 0
KBWS 250525Z 15013KT 22/18 A2999 RMK A01 T02230177  RH  077%=      5-min Rain = 0
KBWS 250530Z 15013G18KT 22/17 A2999 RMK A01 T02210166  RH  073%=      5-min Rain = 0
KBWS 250535Z 15013KT 22/15 A2999 RMK A01 T02210148  RH  065%=      5-min Rain = 0
KBWS 250540Z 15014KT 22/14 A2998 RMK A01 T02190140  RH  062%=      5-min Rain = 0
KBWS 250545Z 15014KT 22/14 A2998 RMK A01 T02180136  RH  061%=      5-min Rain = 0
KBWS 250550Z 15014KT 22/13 A2998 RMK A01 T02160134  RH  061%=      5-min Rain = 0
KBWS 250555Z 15014KT 22/13 A2998 RMK A01 T02150133  RH  061%=      5-min Rain = 0
KBWS 250600Z 15012KT 21/13 A2998 RMK A01 T02130132  RH  061%=      5-min Rain = 0
KBWS 250605Z 15011KT 21/13 A2998 RMK A01 T02120131  RH  061%=      5-min Rain = 0
KBWS 250610Z 15011KT 21/13 A2998 RMK A01 T02110132  RH  062%=      5-min Rain = 0
KBWS 250615Z 16011KT 21/13 A2998 RMK A01 T02090132  RH  062%=      5-min Rain = 0
KBWS 250620Z 15010KT 21/13 A2997 RMK A01 T02080133  RH  063%=      5-min Rain = 0
KBWS 250625Z 15009KT 21/13 A2997 RMK A01 T02060134  RH  064%=      5-min Rain = 0
KBWS 250630Z 15008KT 20/14 A2997 RMK A01 T02040135  RH  066%=      5-min Rain = 0
KBWS 250635Z 15008KT 20/14 A2997 RMK A01 T02020136  RH  067%=      5-min Rain = 0
KBWS 250640Z 15007KT 20/14 A2998 RMK A01 T02010136  RH  068%=      5-min Rain = 0
KBWS 250645Z 14007KT 20/14 A2998 RMK A01 T01990136  RH  069%=      5-min Rain = 0
KBWS 250650Z 15007KT 20/14 A2997 RMK A01 T01980137  RH  069%=      5-min Rain = 0
KBWS 250655Z 15007KT 20/14 A2997 RMK A01 T01970136  RH  069%=      5-min Rain = 0
KBWS 250700Z 15006KT 20/14 A2997 RMK A01 T01950136  RH  070%=      5-min Rain = 0
KBWS 250705Z 15006KT 19/14 A2997 RMK A01 T01930136  RH  071%=      5-min Rain = 0
KBWS 250710Z 16006KT 19/14 A2997 RMK A01 T01920136  RH  071%=      5-min Rain = 0
KBWS 250715Z 16006KT 19/14 A2997 RMK A01 T01910136  RH  072%=      5-min Rain = 0
KBWS 250720Z 15006KT 19/14 A2997 RMK A01 T01890136  RH  073%=      5-min Rain = 0
KBWS 250725Z 14006KT 19/14 A2997 RMK A01 T01870136  RH  074%=      5-min Rain = 0
KBWS 250730Z 14006KT 19/14 A2998 RMK A01 T01850136  RH  075%=      5-min Rain = 0
KBWS 250735Z 15005KT 18/14 A2997 RMK A01 T01840136  RH  075%=      5-min Rain = 0
KBWS 250740Z 16005KT 18/14 A2997 RMK A01 T01830136  RH  076%=      5-min Rain = 0
KBWS 250745Z 15005KT 18/14 A2997 RMK A01 T01820136  RH  076%=      5-min Rain = 0
KBWS 250750Z 14004KT 18/14 A2997 RMK A01 T01810136  RH  076%=      5-min Rain = 0
KBWS 250755Z 13005KT 18/14 A2997 RMK A01 T01790135  RH  077%=      5-min Rain = 0
KBWS 250800Z 14004KT 18/14 A2997 RMK A01 T01770135  RH  078%=      5-min Rain = 0
KBWS 250805Z 15003KT 18/14 A2997 RMK A01 T01770136  RH  079%=      5-min Rain = 0
KBWS 250810Z 17004KT 18/14 A2997 RMK A01 T01770135  RH  078%=      5-min Rain = 0
KBWS 250815Z 17006KT 18/14 A2998 RMK A01 T01780135  RH  077%=      5-min Rain = 0
KBWS 250820Z 18006KT 18/14 A2998 RMK A01 T01790135  RH  077%=      5-min Rain = 0
KBWS 250825Z 17007KT 18/14 A2998 RMK A01 T01800135  RH  077%=      5-min Rain = 0
KBWS 250830Z 17008KT 18/14 A2998 RMK A01 T01790135  RH  077%=      5-min Rain = 0
KBWS 250835Z 17008KT 18/13 A2999 RMK A01 T01790134  RH  077%=      5-min Rain = 0
KBWS 250840Z 17008KT 18/13 A2998 RMK A01 T01790134  RH  076%=      5-min Rain = 0
KBWS 250845Z 18006KT 18/13 A2998 RMK A01 T01790133  RH  076%=      5-min Rain = 0
KBWS 250850Z 17006KT 18/13 A2998 RMK A01 T01780133  RH  076%=      5-min Rain = 0
KBWS 250855Z 17006KT 18/13 A2998 RMK A01 T01780133  RH  076%=      5-min Rain = 0
KBWS 250900Z 16006KT 18/13 A2998 RMK A01 T01760132  RH  077%=      5-min Rain = 0
KBWS 250905Z 16006KT 18/13 A2998 RMK A01 T01750133  RH  078%=      5-min Rain = 0
KBWS 250910Z 17007KT 17/13 A2998 RMK A01 T01740133  RH  078%=      5-min Rain = 0
KBWS 250915Z 17007KT 17/13 A2998 RMK A01 T01730133  RH  079%=      5-min Rain = 0
KBWS 250920Z 19006KT 17/13 A2998 RMK A01 T01730133  RH  079%=      5-min Rain = 0
KBWS 250925Z 19006KT 17/13 A2998 RMK A01 T01720133  RH  079%=      5-min Rain = 0
KBWS 250930Z 19006KT 17/13 A2998 RMK A01 T01720133  RH  080%=      5-min Rain = 0
KBWS 250935Z 18006KT 17/13 A2998 RMK A01 T01720133  RH  079%=      5-min Rain = 0
KBWS 250940Z 18005KT 17/13 A2998 RMK A01 T01720133  RH  079%=      5-min Rain = 0
KBWS 250945Z 18005KT 17/13 A2998 RMK A01 T01710132  RH  079%=      5-min Rain = 0
KBWS 250950Z 18005KT 17/13 A2998 RMK A01 T01710133  RH  080%=      5-min Rain = 0
KBWS 250955Z 17004KT 17/13 A2998 RMK A01 T01700132  RH  080%=      5-min Rain = 0
KBWS 251000Z 18003KT 17/13 A2999 RMK A01 T01690131  RH  080%=      5-min Rain = 0
KBWS 251005Z 19004KT 17/13 A2999 RMK A01 T01670132  RH  081%=      5-min Rain = 0
KBWS 251010Z 18004KT 17/13 A2999 RMK A01 T01660132  RH  082%=      5-min Rain = 0
KBWS 251015Z 19005KT 17/13 A2999 RMK A01 T01660132  RH  082%=      5-min Rain = 0
KBWS 251020Z 19005KT 17/13 A2999 RMK A01 T01660133  RH  082%=      5-min Rain = 0
KBWS 251025Z 20005KT 17/13 A2999 RMK A01 T01670133  RH  082%=      5-min Rain = 0
KBWS 251030Z 20004KT 17/13 A2999 RMK A01 T01660133  RH  082%=      5-min Rain = 0
KBWS 251035Z 21004KT 17/13 A2999 RMK A01 T01650133  RH  083%=      5-min Rain = 0
KBWS 251040Z 21004KT 16/13 A2999 RMK A01 T01640133  RH  083%=      5-min Rain = 0
KBWS 251045Z 21004KT 16/13 A30 RMK A01 T01630133  RH  084%=      5-min Rain = 0
KBWS 251050Z 20004KT 16/13 A30 RMK A01 T01630133  RH  084%=      5-min Rain = 0
KBWS 251055Z 20003KT 16/13 A30 RMK A01 T01620132  RH  084%=      5-min Rain = 0
KBWS 251100Z 19003KT 16/13 A30 RMK A01 T01620132  RH  084%=      5-min Rain = 0
KBWS 251105Z 16003KT 16/13 A30 RMK A01 T01620130  RH  083%=      5-min Rain = 0
KBWS 251110Z 16003KT 16/13 A30 RMK A01 T01590129  RH  084%=      5-min Rain = 0
KBWS 251115Z 18003KT 16/13 A30 RMK A01 T01590130  RH  085%=      5-min Rain = 0
KBWS 251120Z 20003KT 16/13 A30 RMK A01 T01580131  RH  085%=      5-min Rain = 0
KBWS 251125Z 20004KT 16/13 A30 RMK A01 T01600131  RH  085%=      5-min Rain = 0
KBWS 251130Z 18004KT 16/13 A30 RMK A01 T01600130  RH  084%=      5-min Rain = 0
KBWS 251135Z 19004KT 16/13 A3001 RMK A01 T01590127  RH  083%=      5-min Rain = 0
KBWS 251140Z 20004KT 16/13 A3001 RMK A01 T01590129  RH  084%=      5-min Rain = 0
KBWS 251145Z 21005KT 16/13 A3001 RMK A01 T01620130  RH  083%=      5-min Rain = 0
KBWS 251150Z 20005KT 16/13 A3001 RMK A01 T01620130  RH  083%=      5-min Rain = 0
KBWS 251155Z 21006KT 16/13 A3001 RMK A01 T01620131  RH  083%=      5-min Rain = 0
KBWS 251200Z 21006KT 16/13 A3002 RMK A01 T01630132  RH  083%=      5-min Rain = 0
KBWS 251205Z 21006KT 17/13 A3001 RMK A01 T01660132  RH  082%=      5-min Rain = 0
KBWS 251210Z 21006KT 17/13 A3001 RMK A01 T01690132  RH  081%=      5-min Rain = 0
KBWS 251215Z 21007KT 17/13 A3001 RMK A01 T01720132  RH  079%=      5-min Rain = 0
KBWS 251220Z 22007KT 18/13 A3002 RMK A01 T01750132  RH  078%=      5-min Rain = 0
KBWS 251225Z 22006KT 18/13 A3002 RMK A01 T01780132  RH  076%=      5-min Rain = 0
KBWS 251230Z 23005KT 18/13 A3002 RMK A01 T01810132  RH  075%=      5-min Rain = 0
KBWS 251235Z 23005KT 18/13 A3002 RMK A01 T01840132  RH  073%=      5-min Rain = 0
KBWS 251240Z 23004KT 19/13 A3002 RMK A01 T01860132  RH  072%=      5-min Rain = 0
KBWS 251245Z 23004KT 19/13 A3002 RMK A01 T01880132  RH  071%=      5-min Rain = 0
KBWS 251250Z 24005KT 19/13 A3002 RMK A01 T01890132  RH  071%=      5-min Rain = 0
KBWS 251255Z 24006KT 19/13 A3002 RMK A01 T01910133  RH  070%=      5-min Rain = 0
KBWS 251300Z 24006KT 19/13 A3002 RMK A01 T01930134  RH  070%=      5-min Rain = 0
KBWS 251305Z 23006KT 20/13 A3003 RMK A01 T01960134  RH  069%=      5-min Rain = 0
KBWS 251310Z 23006KT 20/13 A3003 RMK A01 T01990134  RH  067%=      5-min Rain = 0
KBWS 251315Z 23007KT 20/14 A3003 RMK A01 T02040135  RH  066%=      5-min Rain = 0
KBWS 251320Z 23008KT 21/14 A3003 RMK A01 T02060135  RH  065%=      5-min Rain = 0
KBWS 251325Z 23010KT 21/14 A3003 RMK A01 T02080137  RH  065%=      5-min Rain = 0
KBWS 251330Z 23011G16KT 21/14 A3003 RMK A01 T02110140  RH  065%=      5-min Rain = 0
KBWS 251335Z 22011KT 21/14 A3003 RMK A01 T02140144  RH  066%=      5-min Rain = 0
KBWS 251340Z 22014G19KT 22/15 A3003 RMK A01 T02170147  RH  066%=      5-min Rain = 0
KBWS 251345Z 22014KT 22/15 A3003 RMK A01 T02170149  RH  067%=      5-min Rain = 0
KBWS 251350Z 21013G18KT 22/15 A3003 RMK A01 T02220153  RH  067%=      5-min Rain = 0
KBWS 251355Z 22015KT 22/16 A3003 RMK A01 T02240156  RH  067%=      5-min Rain = 0
KBWS 251400Z 21015G20KT 23/16 A3003 RMK A01 T02260159  RH  068%=      5-min Rain = 0
KBWS 251405Z 21017KT 23/16 A3004 RMK A01 T02260161  RH  068%=      5-min Rain = 0
KBWS 251410Z 21016KT 23/16 A3004 RMK A01 T02260161  RH  068%=      5-min Rain = 0
KBWS 251415Z 22015G23KT 23/16 A3004 RMK A01 T02310162  RH  067%=      5-min Rain = 0
KBWS 251420Z 22016KT 23/16 A3004 RMK A01 T02310162  RH  067%=      5-min Rain = 0
KBWS 251425Z 21016G21KT 23/16 A3004 RMK A01 T02330162  RH  066%=      5-min Rain = 0
KBWS 251430Z 22015KT 24/16 A3004 RMK A01 T02360161  RH  064%=      5-min Rain = 0
KBWS 251435Z 22015KT 24/16 A3004 RMK A01 T02380159  RH  063%=      5-min Rain = 0
KBWS 251440Z 22016KT 24/16 A3004 RMK A01 T02380159  RH  063%=      5-min Rain = 0
KBWS 251445Z 21017KT 24/16 A3003 RMK A01 T02400159  RH  062%=      5-min Rain = 0
KBWS 251450Z 21017G22KT 24/16 A3003 RMK A01 T02420159  RH  061%=      5-min Rain = 0
KBWS 251455Z 21018KT 25/16 A3003 RMK A01 T02450159  RH  060%=      5-min Rain = 0
KBWS 251500Z 21017KT 25/16 A3003 RMK A01 T02480160  RH  059%=      5-min Rain = 0
KBWS 251505Z 21015KT 25/16 A3003 RMK A01 T02520161  RH  059%=      5-min Rain = 0
KBWS 251510Z 21014KT 25/16 A3003 RMK A01 T02540162  RH  058%=      5-min Rain = 0
KBWS 251515Z 22016G21KT 25/16 A3003 RMK A01 T02540160  RH  057%=      5-min Rain = 0
KBWS 251520Z 21014KT 26/16 A3003 RMK A01 T02570161  RH  057%=      5-min Rain = 0
KBWS 251525Z 20013KT 26/16 A3003 RMK A01 T02600162  RH  056%=      5-min Rain = 0
KBWS 251530Z 22012G19KT 26/16 A3003 RMK A01 T02620162  RH  055%=      5-min Rain = 0
KBWS 251535Z 20013KT 27/16 A3003 RMK A01 T02660163  RH  054%=      5-min Rain = 0
KBWS 251540Z 21011KT 27/16 A3003 RMK A01 T02650163  RH  055%=      5-min Rain = 0
KBWS 251545Z 21012KT 27/16 A3003 RMK A01 T02650164  RH  055%=      5-min Rain = 0
KBWS 251550Z 21013KT 27/16 A3003 RMK A01 T02710163  RH  053%=      5-min Rain = 0
KBWS 251555Z 21012KT 27/16 A3003 RMK A01 T02720163  RH  053%=      5-min Rain = 0
KBWS 251600Z 22011G16KT 28/16 A3002 RMK A01 T02750164  RH  052%=      5-min Rain = 0
KBWS 251605Z 22011KT 28/16 A3002 RMK A01 T02800162  RH  050%=      5-min Rain = 0
KBWS 251610Z 22012G18KT 28/16 A3002 RMK A01 T02800160  RH  049%=      5-min Rain = 0
KBWS 251615Z 21011KT 29/16 A3002 RMK A01 T02850163  RH  048%=      5-min Rain = 0
KBWS 251620Z 22011G16KT 29/16 A3002 RMK A01 T02900161  RH  047%=      5-min Rain = 0
KBWS 251625Z 21011G17KT 29/16 A3002 RMK A01 T02870160  RH  047%=      5-min Rain = 0
KBWS 251630Z 21010KT 29/16 A3002 RMK A01 T02920161  RH  046%=      5-min Rain = 0
KBWS 251635Z 22011KT 29/16 A3002 RMK A01 T02930157  RH  045%=      5-min Rain = 0
KBWS 251640Z 20010KT 30/16 A3002 RMK A01 T02960159  RH  045%=      5-min Rain = 0
KBWS 251645Z 22010KT 30/16 A3002 RMK A01 T03000158  RH  043%=      5-min Rain = 0
KBWS 251650Z 22010KT 30/15 A3002 RMK A01 T02990154  RH  042%=      5-min Rain = 0
KBWS 251655Z 22009KT 30/15 A3002 RMK A01 T03020154  RH  042%=      5-min Rain = 0
KBWS 251700Z 22010G15KT 31/15 A3002 RMK A01 T03090151  RH  039%=      5-min Rain = 0
KBWS 251705Z 22009KT 31/15 A3002 RMK A01 T03100149  RH  039%=      5-min Rain = 0
KBWS 251710Z 21008KT 32/15 A3002 RMK A01 T03160150  RH  038%=      5-min Rain = 0
KBWS 251715Z 19009KT 32/15 A3002 RMK A01 T03160150  RH  038%=      5-min Rain = 0
KBWS 251720Z 18009G15KT 32/15 A3002 RMK A01 T03170147  RH  037%=      5-min Rain = 0
KBWS 251725Z 18009G16KT 32/14 A3002 RMK A01 T03200140  RH  034%=      5-min Rain = 0
KBWS 251730Z 20009KT 32/14 A3002 RMK A01 T03210139  RH  034%=      5-min Rain = 0
KBWS 251735Z 19006G11KT 33/14 A3002 RMK A01 T03250143  RH  034%=      5-min Rain = 0
KBWS 251740Z 19008KT 33/15 A3001 RMK A01 T03320146  RH  033%=      5-min Rain = 0
KBWS 251745Z 20009G14KT 33/14 A3001 RMK A01 T03300141  RH  033%=      5-min Rain = 0
KBWS 251750Z 21006G11KT 33/14 A3001 RMK A01 T03320143  RH  033%=      5-min Rain = 0
KBWS 251755Z 18009G14KT 33/14 A3001 RMK A01 T03340141  RH  032%=      5-min Rain = 0
KBWS 251800Z 21009KT 33/13 A3001 RMK A01 T03300131  RH  030%=      5-min Rain = 0
KBWS 251805Z 20009KT 34/14 A3001 RMK A01 T03350141  RH  032%=      5-min Rain = 0
KBWS 251810Z 19009KT 34/13 A3001 RMK A01 T03410131  RH  029%=      5-min Rain = 0
KBWS 251815Z 19009KT 34/12 A3001 RMK A01 T03380122  RH  027%=      5-min Rain = 0
KBWS 251820Z 18007G12KT 34/13 A3001 RMK A01 T03410125  RH  028%=      5-min Rain = 0
KBWS 251825Z 19010G18KT 34/13 A3001 RMK A01 T03420125  RH  028%=      5-min Rain = 0
KBWS 251830Z 17012KT 35/12 A3001 RMK A01 T03450123  RH  027%=      5-min Rain = 0
KBWS 251835Z 20008G14KT 34/12 A3001 RMK A01 T03390124  RH  028%=      5-min Rain = 0
KBWS 251840Z 18009G15KT 35/11 A3001 RMK A01 T03450108  RH  024%=      5-min Rain = 0
KBWS 251845Z 20010G17KT 34/11 A30 RMK A01 T03440105  RH  024%=      5-min Rain = 0
KBWS 251850Z 18011G16KT 35/10 A3001 RMK A01 T03470099  RH  022%=      5-min Rain = 0
KBWS 251855Z 17011G17KT 35/09 A30 RMK A01 T03480090  RH  021%=      5-min Rain = 0
KBWS 251900Z 19012KT 35/09 A30 RMK A01 T03500094  RH  021%=      5-min Rain = 0
KBWS 251905Z 18011G18KT 35/09 A30 RMK A01 T03490091  RH  021%=      5-min Rain = 0
KBWS 251910Z 17009KT 35/08 A30 RMK A01 T03490079  RH  019%=      5-min Rain = 0
KBWS 251915Z 17015KT 36/07 A30 RMK A01 T03550073  RH  018%=      5-min Rain = 0
KBWS 251920Z 17013G18KT 35/08 A30 RMK A01 T03540084  RH  020%=      5-min Rain = 0
KBWS 251925Z 17010KT 35/10 A30 RMK A01 T03510096  RH  022%=      5-min Rain = 0
KBWS 251930Z 17009G16KT 35/09 A30 RMK A01 T03510089  RH  021%=      5-min Rain = 0
KBWS 251935Z 17012G19KT 36/08 A2999 RMK A01 T03610082  RH  018%=      5-min Rain = 0
KBWS 251940Z 19009G17KT 35/09 A2999 RMK A01 T03530086  RH  020%=      5-min Rain = 0
KBWS 251945Z 15012G18KT 36/07 A2999 RMK A01 T03600067  RH  017%=      5-min Rain = 0
KBWS 251950Z 17012G19KT 36/08 A2999 RMK A01 T03580076  RH  018%=      5-min Rain = 0
KBWS 251955Z 16012G21KT 36/08 A2999 RMK A01 T03610080  RH  018%=      5-min Rain = 0
KBWS 252000Z 19012G21KT 36/09 A2999 RMK A01 T03600085  RH  019%=      5-min Rain = 0
KBWS 252005Z 15014G19KT 36/09 A2998 RMK A01 T03640089  RH  019%=      5-min Rain = 0
KBWS 252010Z 14015KT 36/09 A2998 RMK A01 T03610088  RH  019%=      5-min Rain = 0
KBWS 252015Z 16013G18KT 36/09 A2998 RMK A01 T03580086  RH  019%=      5-min Rain = 0
KBWS 252020Z 16013G19KT 36/08 A2998 RMK A01 T03600078  RH  018%=      5-min Rain = 0
KBWS 252025Z 14012G17KT 36/08 A2998 RMK A01 T03560076  RH  018%=      5-min Rain = 0
KBWS 252030Z 17010G17KT 36/08 A2998 RMK A01 T03620075  RH  018%=      5-min Rain = 0
KBWS 252035Z 17013G21KT 37/08 A2998 RMK A01 T03650079  RH  018%=      5-min Rain = 0
KBWS 252040Z 17009G16KT 36/07 A2997 RMK A01 T03600074  RH  017%=      5-min Rain = 0
KBWS 252045Z 17014G21KT 36/08 A2997 RMK A01 T03640082  RH  018%=      5-min Rain = 0
KBWS 252050Z 17009G16KT 36/08 A2997 RMK A01 T03630076  RH  018%=      5-min Rain = 0
KBWS 252055Z 15013G22KT 36/09 A2997 RMK A01 T03640089  RH  019%=      5-min Rain = 0
KBWS 252100Z 14016G21KT 37/10 A2997 RMK A01 T03650101  RH  021%=      5-min Rain = 0
KBWS 252105Z 14013KT 36/10 A2997 RMK A01 T03610104  RH  021%=      5-min Rain = 0
KBWS 252110Z 16012G17KT 36/09 A2996 RMK A01 T03610090  RH  020%=      5-min Rain = 0
KBWS 252115Z 17016G21KT 37/09 A2996 RMK A01 T03660094  RH  020%=      5-min Rain = 0
KBWS 252120Z 15018G25KT 36/11 A2996 RMK A01 T03640107  RH  022%=      5-min Rain = 0
KBWS 252125Z 15017G23KT 36/11 A2996 RMK A01 T03620107  RH  022%=      5-min Rain = 0
KBWS 252130Z 15015G22KT 35/10 A2996 RMK A01 T03500102  RH  023%=      5-min Rain = 0
KBWS 252135Z 13018G23KT 35/11 A2996 RMK A01 T03520105  RH  023%=      5-min Rain = 0
KBWS 252140Z 15019KT 35/10 A2996 RMK A01 T03520101  RH  022%=      5-min Rain = 0
KBWS 252145Z 13015G20KT 35/10 A2996 RMK A01 T03510098  RH  022%=      5-min Rain = 0
KBWS 252150Z 13013G18KT 35/09 A2996 RMK A01 T03510094  RH  021%=      5-min Rain = 0
KBWS 252155Z 16013G22KT 36/09 A2995 RMK A01 T03560094  RH  021%=      5-min Rain = 0
KBWS 252200Z 15019G27KT 36/10 A2995 RMK A01 T03580095  RH  021%=      5-min Rain = 0
KBWS 252205Z 15017KT 36/10 A2995 RMK A01 T03560095  RH  021%=      5-min Rain = 0
KBWS 252210Z 13013G18KT 35/09 A2995 RMK A01 T03540093  RH  021%=      5-min Rain = 0
KBWS 252215Z 14017KT 36/09 A2995 RMK A01 T03550089  RH  020%=      5-min Rain = 0
KBWS 252220Z 15014G22KT 35/09 A2995 RMK A01 T03540088  RH  020%=      5-min Rain = 0
KBWS 252225Z 15015G21KT 36/09 A2995 RMK A01 T03570088  RH  020%=      5-min Rain = 0
KBWS 252230Z 15016G21KT 36/08 A2994 RMK A01 T03610081  RH  018%=      5-min Rain = 0
KBWS 252235Z 16015G20KT 36/08 A2994 RMK A01 T03580077  RH  018%=      5-min Rain = 0
KBWS 252240Z 15015G21KT 36/08 A2994 RMK A01 T03550081  RH  019%=      5-min Rain = 0
KBWS 252245Z 16016G22KT 36/08 A2994 RMK A01 T03570077  RH  018%=      5-min Rain = 0
KBWS 252250Z 16016G22KT 36/07 A2994 RMK A01 T03590073  RH  018%=      5-min Rain = 0
KBWS 252255Z 16017KT 36/07 A2994 RMK A01 T03560069  RH  017%=      5-min Rain = 0
KBWS 252300Z 15017G22KT 36/07 A2994 RMK A01 T03570068  RH  017%=      5-min Rain = 0
KBWS 252305Z 15017G22KT 35/08 A2994 RMK A01 T03530079  RH  019%=      5-min Rain = 0
KBWS 252310Z 14017G22KT 35/08 A2994 RMK A01 T03530083  RH  019%=      5-min Rain = 0
KBWS 252315Z 15017KT 35/08 A2994 RMK A01 T03510075  RH  019%=      5-min Rain = 0
KBWS 252320Z 15018KT 35/07 A2994 RMK A01 T03540074  RH  018%=      5-min Rain = 0
KBWS 252325Z 15016KT 35/07 A2993 RMK A01 T03540071  RH  018%=      5-min Rain = 0
KBWS 252330Z 15016G21KT 35/07 A2993 RMK A01 T03520069  RH  018%=      5-min Rain = 0
KBWS 252335Z 15017G22KT 35/07 A2993 RMK A01 T03520065  RH  017%=      5-min Rain = 0
KBWS 252340Z 14018G25KT 35/07 A2993 RMK A01 T03510071  RH  018%=      5-min Rain = 0
KBWS 252345Z 14019KT 35/08 A2993 RMK A01 T03490079  RH  019%=      5-min Rain = 0
KBWS 252350Z 14018KT 35/09 A2993 RMK A01 T03460094  RH  022%=      5-min Rain = 0
KBWS 252355Z 13018KT 34/10 A2993 RMK A01 T03420104  RH  024%=      5-min Rain = 0
KBWS 260000Z 14018G25KT 34/11 A2992 RMK A01 T03420109  RH  025%=      5-min Rain = 0
KBWS 260005Z 14020G26KT 34/12 A2993 RMK A01 T03400119  RH  027%=      5-min Rain = 0
KBWS 260010Z 14017G22KT 34/13 A2992 RMK A01 T03370128  RH  029%=      5-min Rain = 0
KBWS 260015Z 15020G26KT 34/12 A2992 RMK A01 T03370124  RH  028%=      5-min Rain = 0
KBWS 260020Z 15019G24KT 34/13 A2992 RMK A01 T03350125  RH  029%=      5-min Rain = 0
KBWS 260025Z 15020KT 33/13 A2992 RMK A01 T03330128  RH  029%=      5-min Rain = 0
KBWS 260030Z 14018G25KT 33/13 A2992 RMK A01 T03330132  RH  030%=      5-min Rain = 0
KBWS 260035Z 14020G26KT 33/13 A2992 RMK A01 T03300134  RH  031%=      5-min Rain = 0
KBWS 260040Z 14021G29KT 33/13 A2992 RMK A01 T03280131  RH  031%=      5-min Rain = 0
KBWS 260045Z 15020G25KT 33/13 A2993 RMK A01 T03280133  RH  031%=      5-min Rain = 0
KBWS 260050Z 15020G27KT 33/13 A2993 RMK A01 T03270132  RH  031%=      5-min Rain = 0
KBWS 260055Z 14020G27KT 33/14 A2993 RMK A01 T03250136  RH  032%=      5-min Rain = 0
KBWS 260100Z 14019G24KT 32/14 A2993 RMK A01 T03220137  RH  033%=      5-min Rain = 0
KBWS 260105Z 14021G28KT 32/14 A2993 RMK A01 T03210138  RH  034%=      5-min Rain = 0
KBWS 260110Z 14020G28KT 32/15 A2993 RMK A01 T03170146  RH  036%=      5-min Rain = 0
KBWS 260115Z 13022G29KT 31/15 A2994 RMK A01 T03140146  RH  037%=      5-min Rain = 0
KBWS 260120Z 13020G26KT 31/14 A2994 RMK A01 T03120144  RH  037%=      5-min Rain = 0
KBWS 260125Z 13019KT 31/14 A2994 RMK A01 T03110144  RH  037%=      5-min Rain = 0
KBWS 260130Z 13019G26KT 31/14 A2994 RMK A01 T03090143  RH  037%=      5-min Rain = 0
KBWS 260135Z 13021G28KT 31/14 A2995 RMK A01 T03070144  RH  038%=      5-min Rain = 0
KBWS 260140Z 14019KT 30/15 A2995 RMK A01 T03040146  RH  039%=      5-min Rain = 0
KBWS 260145Z 13020G27KT 30/15 A2995 RMK A01 T03030145  RH  039%=      5-min Rain = 0
KBWS 260150Z 13017G23KT 30/15 A2996 RMK A01 T03000146  RH  040%=      5-min Rain = 0
KBWS 260155Z 13020KT 30/15 A2996 RMK A01 T02980149  RH  041%=      5-min Rain = 0
KBWS 260200Z 13020G25KT 30/15 A2996 RMK A01 T02960151  RH  042%=      5-min Rain = 0
KBWS 260205Z 13021G27KT 29/15 A2996 RMK A01 T02940153  RH  043%=      5-min Rain = 0
KBWS 260210Z 13019G25KT 29/16 A2997 RMK A01 T02920155  RH  045%=      5-min Rain = 0
KBWS 260215Z 13018KT 29/16 A2997 RMK A01 T02890157  RH  046%=      5-min Rain = 0
KBWS 260220Z 13020G26KT 29/16 A2998 RMK A01 T02870159  RH  047%=      5-min Rain = 0
KBWS 260225Z 13019G24KT 29/16 A2998 RMK A01 T02860160  RH  048%=      5-min Rain = 0
KBWS 260230Z 13020G26KT 28/16 A2999 RMK A01 T02840161  RH  048%=      5-min Rain = 0
KBWS 260235Z 13019G24KT 28/16 A2999 RMK A01 T02830163  RH  049%=      5-min Rain = 0
KBWS 260240Z 13019G25KT 28/16 A30 RMK A01 T02810164  RH  050%=      5-min Rain = 0
KBWS 260245Z 13018G23KT 28/17 A30 RMK A01 T02800165  RH  051%=      5-min Rain = 0
KBWS 260250Z 13018G24KT 28/17 A30 RMK A01 T02790165  RH  051%=      5-min Rain = 0
KBWS 260255Z 13018KT 28/17 A3001 RMK A01 T02780166  RH  052%=      5-min Rain = 0
KBWS 260300Z 13017G23KT 28/17 A3001 RMK A01 T02760166  RH  052%=      5-min Rain = 0
KBWS 260305Z 14016KT 28/17 A3002 RMK A01 T02750166  RH  053%=      5-min Rain = 0
KBWS 260310Z 14018G23KT 27/17 A3003 RMK A01 T02740166  RH  053%=      5-min Rain = 0
KBWS 260315Z 14018G24KT 27/17 A3003 RMK A01 T02730165  RH  053%=      5-min Rain = 0
KBWS 260320Z 14016KT 27/16 A3004 RMK A01 T02720164  RH  053%=      5-min Rain = 0
KBWS 260325Z 14016G21KT 27/16 A3005 RMK A01 T02710163  RH  053%=      5-min Rain = 0
KBWS 260330Z 14015G20KT 27/16 A3005 RMK A01 T02690163  RH  053%=      5-min Rain = 0
KBWS 260335Z 14016G21KT 27/16 A3006 RMK A01 T02680161  RH  053%=      5-min Rain = 0
KBWS 260340Z 14017G22KT 27/16 A3006 RMK A01 T02680161  RH  053%=      5-min Rain = 0
KBWS 260345Z 14016KT 27/16 A3005 RMK A01 T02660161  RH  053%=      5-min Rain = 0
KBWS 260350Z 15014KT 27/16 A3006 RMK A01 T02650160  RH  054%=      5-min Rain = 0
KBWS 260355Z 14015KT 26/16 A3005 RMK A01 T02640160  RH  054%=      5-min Rain = 0
KBWS 260400Z 15017KT 26/16 A3005 RMK A01 T02630160  RH  054%=      5-min Rain = 0
KBWS 260405Z 15016G22KT 26/16 A3006 RMK A01 T02630160  RH  054%=      5-min Rain = 0
KBWS 260410Z 16016G21KT 26/16 A3006 RMK A01 T02620160  RH  055%=      5-min Rain = 0
KBWS 260415Z 16016KT 26/16 A3006 RMK A01 T02610160  RH  055%=      5-min Rain = 0
KBWS 260420Z 15017KT 26/16 A3006 RMK A01 T02600160  RH  055%=      5-min Rain = 0
KBWS 260425Z 15016KT 26/16 A3006 RMK A01 T02590161  RH  056%=      5-min Rain = 0
KBWS 260430Z 15013G19KT 26/16 A3006 RMK A01 T02580161  RH  056%=      5-min Rain = 0
KBWS 260435Z 14013KT 26/16 A3006 RMK A01 T02560161  RH  057%=      5-min Rain = 0
KBWS 260440Z 13012KT 25/16 A3007 RMK A01 T02540161  RH  058%=      5-min Rain = 0
KBWS 260445Z 13012KT 25/16 A3007 RMK A01 T02530162  RH  058%=      5-min Rain = 0
KBWS 260450Z 13011KT 25/16 A3008 RMK A01 T02520162  RH  059%=      5-min Rain = 0
KBWS 260455Z 12011KT 25/16 A3008 RMK A01 T02510162  RH  059%=      5-min Rain = 0

Page generated in 0.0088 seconds.